Time;durP1;ratioP1;P1;durP2;ratioP2;P2;SDS_P1;SDS_P2;PMS_P1;PMS_P2;Temp;Humidity;BMP_temperature;BMP_pressure;BME280_temperature;BME280_humidity;BME280_pressure;Samples;Min_cycle;Max_cycle;Signal;HPM_P1;HPM_P2
2023/10/30 00:02:20;;;;;;;0.00;0.00;;;;;;;;;;4983384;28;20045;-65
2023/10/30 00:04:46;;;;;;;0.00;0.00;;;;;;;;;;4989930;28;20076;-65
2023/10/30 00:07:12;;;;;;;0.00;0.00;;;;;;;;;;4988610;28;20120;-66
2023/10/30 00:09:38;;;;;;;0.00;0.00;;;;;;;;;;4991916;28;20501;-66
2023/10/30 00:12:04;;;;;;;0.00;0.00;;;;;;;;;;4988797;28;20114;-66
2023/10/30 00:14:31;;;;;;;0.00;0.00;;;;;;;;;;4989394;28;20069;-66
2023/10/30 00:16:57;;;;;;;0.00;0.00;;;;;;;;;;4987596;28;20030;-66
2023/10/30 00:19:23;;;;;;;0.00;0.00;;;;;;;;;;4982577;28;20045;-65
2023/10/30 00:21:49;;;;;;;0.00;0.00;;;;;;;;;;4989034;28;20046;-65
2023/10/30 00:24:15;;;;;;;0.00;0.00;;;;;;;;;;4986798;28;20499;-66
2023/10/30 00:26:42;;;;;;;0.00;0.00;;;;;;;;;;4992609;28;20428;-66
2023/10/30 00:29:08;;;;;;;0.00;0.00;;;;;;;;;;4983424;28;20489;-65
2023/10/30 00:31:36;;;;;;;0.00;0.00;;;;;;;;;;4987306;28;20042;-65
2023/10/30 00:34:03;;;;;;;0.00;0.00;;;;;;;;;;4985477;28;20528;-66
2023/10/30 00:36:29;;;;;;;0.00;0.00;;;;;;;;;;4989846;28;20034;-66
2023/10/30 00:38:55;;;;;;;0.00;0.00;;;;;;;;;;4984457;28;20044;-67
2023/10/30 00:41:21;;;;;;;0.00;0.00;;;;;;;;;;4982072;28;20041;-67
2023/10/30 00:43:47;;;;;;;0.00;0.00;;;;;;;;;;4970467;28;20042;-67
2023/10/30 00:46:13;;;;;;;0.00;0.00;;;;;;;;;;4981290;28;20050;-67
2023/10/30 00:48:39;;;;;;;0.00;0.00;;;;;;;;;;4984579;28;20042;-65
2023/10/30 00:51:05;;;;;;;0.00;0.00;;;;;;;;;;4985787;28;20046;-65
2023/10/30 00:53:31;;;;;;;0.00;0.00;;;;;;;;;;4984723;28;20040;-65
2023/10/30 00:55:57;;;;;;;0.00;0.00;;;;;;;;;;4981198;28;20034;-66
2023/10/30 00:58:23;;;;;;;0.00;0.00;;;;;;;;;;4978747;28;20819;-66
2023/10/30 01:00:49;;;;;;;0.00;0.00;;;;;;;;;;4982588;28;20566;-66
2023/10/30 01:03:19;;;;;;;0.00;0.00;;;;;;;;;;4979485;28;20137;-66
2023/10/30 01:05:45;;;;;;;0.00;0.00;;;;;;;;;;4984266;28;20034;-66
2023/10/30 01:08:11;;;;;;;0.00;0.00;;;;;;;;;;4983245;28;20030;-66
2023/10/30 01:10:37;;;;;;;0.00;0.00;;;;;;;;;;4972860;28;20396;-65
2023/10/30 01:13:03;;;;;;;0.00;0.00;;;;;;;;;;4987027;28;20104;-65
2023/10/30 01:15:29;;;;;;;0.00;0.00;;;;;;;;;;4990319;28;20749;-65
2023/10/30 01:17:55;;;;;;;0.00;0.00;;;;;;;;;;4991809;28;20521;-65
2023/10/30 01:20:21;;;;;;;0.00;0.00;;;;;;;;;;4989137;28;20041;-65
2023/10/30 01:22:47;;;;;;;0.00;0.00;;;;;;;;;;4990210;28;20038;-65
2023/10/30 01:25:13;;;;;;;0.00;0.00;;;;;;;;;;4983831;28;20053;-65
2023/10/30 01:27:39;;;;;;;0.00;0.00;;;;;;;;;;4981976;28;20038;-65
2023/10/30 01:30:06;;;;;;;0.00;0.00;;;;;;;;;;4983509;28;20049;-66
2023/10/30 01:32:31;;;;;;;0.00;0.00;;;;;;;;;;4971133;28;20038;-66
2023/10/30 01:34:58;;;;;;;0.00;0.00;;;;;;;;;;4967934;28;20675;-66
2023/10/30 01:37:23;;;;;;;0.00;0.00;;;;;;;;;;4985728;28;20038;-66
2023/10/30 01:39:49;;;;;;;0.00;0.00;;;;;;;;;;4985199;28;20481;-65
2023/10/30 01:42:16;;;;;;;0.00;0.00;;;;;;;;;;4979475;28;20411;-66
2023/10/30 01:44:58;;;;;;;0.00;0.00;;;;;;;;;;4975905;28;20549;-66
2023/10/30 01:47:25;;;;;;;0.00;0.00;;;;;;;;;;4977690;28;20046;-66
2023/10/30 01:49:52;;;;;;;0.00;0.00;;;;;;;;;;4990596;28;20418;-66
2023/10/30 01:52:18;;;;;;;0.00;0.00;;;;;;;;;;4984030;28;20093;-66
2023/10/30 01:54:46;;;;;;;0.00;0.00;;;;;;;;;;4984442;28;20062;-66
2023/10/30 01:57:13;;;;;;;0.00;0.00;;;;;;;;;;4986048;28;20038;-66
2023/10/30 01:59:39;;;;;;;0.00;0.00;;;;;;;;;;4985892;28;20046;-66
2023/10/30 02:02:05;;;;;;;0.00;0.00;;;;;;;;;;4989180;28;20046;-66
2023/10/30 02:04:31;;;;;;;0.00;0.00;;;;;;;;;;4990452;28;20042;-66
2023/10/30 02:06:59;;;;;;;0.00;0.00;;;;;;;;;;4991489;28;20037;-65
2023/10/30 02:09:25;;;;;;;0.00;0.00;;;;;;;;;;4991170;28;20510;-65
2023/10/30 02:11:51;;;;;;;0.00;0.00;;;;;;;;;;4985432;28;20069;-65
2023/10/30 02:14:17;;;;;;;0.00;0.00;;;;;;;;;;4982421;28;20122;-66
2023/10/30 02:16:43;;;;;;;0.00;0.00;;;;;;;;;;4986592;28;20057;-65
2023/10/30 02:19:13;;;;;;;0.00;0.00;;;;;;;;;;4981584;28;20403;-65
2023/10/30 02:21:39;;;;;;;0.00;0.00;;;;;;;;;;4983580;28;20042;-65
2023/10/30 02:24:08;;;;;;;0.00;0.00;;;;;;;;;;4974789;28;20045;-65
2023/10/30 02:26:34;;;;;;;0.00;0.00;;;;;;;;;;4985555;28;20429;-65
2023/10/30 02:29:02;;;;;;;0.00;0.00;;;;;;;;;;4980496;28;20045;-65
2023/10/30 02:31:30;;;;;;;0.00;0.00;;;;;;;;;;4992881;28;20049;-66
2023/10/30 02:33:56;;;;;;;0.00;0.00;;;;;;;;;;4983632;28;20092;-66
2023/10/30 02:36:22;;;;;;;0.00;0.00;;;;;;;;;;4985304;28;20050;-65
2023/10/30 02:38:48;;;;;;;0.00;0.00;;;;;;;;;;4984759;28;20057;-66
2023/10/30 02:41:14;;;;;;;0.00;0.00;;;;;;;;;;4983630;28;20038;-65
2023/10/30 02:43:40;;;;;;;0.00;0.00;;;;;;;;;;4987016;28;20057;-66
2023/10/30 02:46:06;;;;;;;0.00;0.00;;;;;;;;;;4979668;28;20046;-66
2023/10/30 02:48:32;;;;;;;0.00;0.00;;;;;;;;;;4990667;28;20065;-65
2023/10/30 02:50:58;;;;;;;0.00;0.00;;;;;;;;;;4980052;28;20105;-66
2023/10/30 02:53:24;;;;;;;0.00;0.00;;;;;;;;;;4989162;28;20111;-66
2023/10/30 02:55:50;;;;;;;0.00;0.00;;;;;;;;;;4991080;28;20064;-65
2023/10/30 02:58:16;;;;;;;0.00;0.00;;;;;;;;;;4988811;28;20038;-65
2023/10/30 03:00:42;;;;;;;0.00;0.00;;;;;;;;;;4987318;28;20046;-65
2023/10/30 03:03:09;;;;;;;0.00;0.00;;;;;;;;;;4994230;28;20425;-65
2023/10/30 03:05:35;;;;;;;0.00;0.00;;;;;;;;;;4992450;28;20034;-65
2023/10/30 03:08:01;;;;;;;0.00;0.00;;;;;;;;;;4986885;28;20034;-65
2023/10/30 03:10:28;;;;;;;0.00;0.00;;;;;;;;;;4985441;28;20079;-65
2023/10/30 03:12:54;;;;;;;0.00;0.00;;;;;;;;;;4988143;28;20049;-65
2023/10/30 03:15:20;;;;;;;0.00;0.00;;;;;;;;;;4987304;28;20030;-65
2023/10/30 03:17:46;;;;;;;0.00;0.00;;;;;;;;;;4986959;28;20589;-67
2023/10/30 03:20:13;;;;;;;0.00;0.00;;;;;;;;;;4983116;28;20053;-67
2023/10/30 03:22:39;;;;;;;0.00;0.00;;;;;;;;;;4981974;28;20260;-67
2023/10/30 03:25:05;;;;;;;0.00;0.00;;;;;;;;;;4983203;28;20047;-67
2023/10/30 03:27:31;;;;;;;0.00;0.00;;;;;;;;;;4991731;28;20042;-65
2023/10/30 03:29:57;;;;;;;0.00;0.00;;;;;;;;;;4989938;28;20034;-65
2023/10/30 03:32:23;;;;;;;0.00;0.00;;;;;;;;;;4991138;28;20120;-65
2023/10/30 03:34:49;;;;;;;0.00;0.00;;;;;;;;;;4986768;28;20118;-65
2023/10/30 03:37:15;;;;;;;0.00;0.00;;;;;;;;;;5004635;28;20573;-65
2023/10/30 03:39:41;;;;;;;0.00;0.00;;;;;;;;;;4993122;28;20522;-65
2023/10/30 03:42:07;;;;;;;0.00;0.00;;;;;;;;;;4992902;28;20031;-65
2023/10/30 03:44:33;;;;;;;0.00;0.00;;;;;;;;;;4968150;28;20043;-65
2023/10/30 03:46:59;;;;;;;0.00;0.00;;;;;;;;;;4985743;28;20045;-65
2023/10/30 03:49:25;;;;;;;0.00;0.00;;;;;;;;;;4982651;28;20046;-65
2023/10/30 03:51:51;;;;;;;0.00;0.00;;;;;;;;;;4988525;28;20078;-65
2023/10/30 03:54:17;;;;;;;0.00;0.00;;;;;;;;;;4983828;28;20141;-65
2023/10/30 03:56:43;;;;;;;0.00;0.00;;;;;;;;;;4987562;28;20068;-65
2023/10/30 03:59:10;;;;;;;0.00;0.00;;;;;;;;;;4985126;28;20030;-65
2023/10/30 04:01:36;;;;;;;0.00;0.00;;;;;;;;;;4988954;28;20125;-65
2023/10/30 04:04:02;;;;;;;0.00;0.00;;;;;;;;;;4981984;28;20066;-66
2023/10/30 04:06:29;;;;;;;0.00;0.00;;;;;;;;;;4986495;28;20033;-65
2023/10/30 04:08:55;;;;;;;0.00;0.00;;;;;;;;;;4985920;28;20541;-65
2023/10/30 04:11:21;;;;;;;0.00;0.00;;;;;;;;;;4984064;28;20077;-65
2023/10/30 04:13:47;;;;;;;0.00;0.00;;;;;;;;;;4983990;28;20097;-66
2023/10/30 04:16:15;;;;;;;0.00;0.00;;;;;;;;;;4982997;28;20484;-65
2023/10/30 04:18:41;;;;;;;0.00;0.00;;;;;;;;;;4979442;28;20037;-66
2023/10/30 04:21:08;;;;;;;0.00;0.00;;;;;;;;;;4984899;28;20129;-65
2023/10/30 04:23:34;;;;;;;0.00;0.00;;;;;;;;;;4989247;28;20049;-65
2023/10/30 04:26:00;;;;;;;0.00;0.00;;;;;;;;;;4989166;28;20464;-66
2023/10/30 04:28:26;;;;;;;0.00;0.00;;;;;;;;;;4989311;28;20034;-67
2023/10/30 04:30:52;;;;;;;0.00;0.00;;;;;;;;;;4985760;28;20041;-67
2023/10/30 04:33:18;;;;;;;0.00;0.00;;;;;;;;;;4978641;28;20041;-67
2023/10/30 04:35:44;;;;;;;0.00;0.00;;;;;;;;;;4983086;28;20022;-67
2023/10/30 04:38:10;;;;;;;0.00;0.00;;;;;;;;;;4982663;28;20431;-67
2023/10/30 04:40:36;;;;;;;0.00;0.00;;;;;;;;;;4982939;28;20080;-68
2023/10/30 04:43:02;;;;;;;0.00;0.00;;;;;;;;;;4983801;28;20026;-67
2023/10/30 04:45:28;;;;;;;0.00;0.00;;;;;;;;;;4978692;28;20407;-67
2023/10/30 04:47:54;;;;;;;0.00;0.00;;;;;;;;;;4982442;28;20037;-67
2023/10/30 04:50:20;;;;;;;0.00;0.00;;;;;;;;;;4984719;28;20034;-67
2023/10/30 04:52:47;;;;;;;0.00;0.00;;;;;;;;;;4981727;28;20057;-67
2023/10/30 04:55:13;;;;;;;0.00;0.00;;;;;;;;;;4981503;28;20042;-68
2023/10/30 04:57:39;;;;;;;0.00;0.00;;;;;;;;;;4985351;28;20497;-67
2023/10/30 05:00:06;;;;;;;0.00;0.00;;;;;;;;;;4985565;28;20030;-67
2023/10/30 05:02:32;;;;;;;0.00;0.00;;;;;;;;;;4987289;28;20088;-67
2023/10/30 05:04:58;;;;;;;0.00;0.00;;;;;;;;;;4984774;28;20445;-67
2023/10/30 05:07:23;;;;;;;0.00;0.00;;;;;;;;;;4983979;28;20034;-67
2023/10/30 05:09:50;;;;;;;0.00;0.00;;;;;;;;;;4986979;28;20061;-67
2023/10/30 05:12:16;;;;;;;0.00;0.00;;;;;;;;;;4986892;28;20037;-67
2023/10/30 05:14:42;;;;;;;0.00;0.00;;;;;;;;;;4986707;28;20052;-68
2023/10/30 05:17:08;;;;;;;0.00;0.00;;;;;;;;;;4988947;28;20034;-67
2023/10/30 05:19:34;;;;;;;0.00;0.00;;;;;;;;;;4989247;28;20052;-67
2023/10/30 05:22:00;;;;;;;0.00;0.00;;;;;;;;;;4984181;28;20045;-67
2023/10/30 05:24:26;;;;;;;0.00;0.00;;;;;;;;;;4981689;28;20044;-67
2023/10/30 05:26:54;;;;;;;0.00;0.00;;;;;;;;;;4982782;28;20034;-67
2023/10/30 05:29:20;;;;;;;0.00;0.00;;;;;;;;;;4982371;28;20042;-67
2023/10/30 05:31:47;;;;;;;0.00;0.00;;;;;;;;;;4976593;28;20052;-67
2023/10/30 05:34:13;;;;;;;0.00;0.00;;;;;;;;;;4983018;28;20049;-67
2023/10/30 05:36:39;;;;;;;0.00;0.00;;;;;;;;;;4976548;28;20268;-67
2023/10/30 05:39:05;;;;;;;0.00;0.00;;;;;;;;;;4981245;28;20051;-66
2023/10/30 05:41:31;;;;;;;0.00;0.00;;;;;;;;;;4990162;28;20402;-66
2023/10/30 05:43:57;;;;;;;0.00;0.00;;;;;;;;;;4984787;28;20037;-66
2023/10/30 05:46:23;;;;;;;0.00;0.00;;;;;;;;;;4952513;28;20104;-66
2023/10/30 05:48:49;;;;;;;0.00;0.00;;;;;;;;;;4981158;28;20042;-66
2023/10/30 05:51:15;;;;;;;0.00;0.00;;;;;;;;;;4976319;28;20479;-66
2023/10/30 05:53:42;;;;;;;0.00;0.00;;;;;;;;;;4981606;28;20030;-66
2023/10/30 05:56:08;;;;;;;0.00;0.00;;;;;;;;;;4980189;28;20573;-66
2023/10/30 05:58:34;;;;;;;0.00;0.00;;;;;;;;;;4979432;28;20065;-66
2023/10/30 06:01:00;;;;;;;0.00;0.00;;;;;;;;;;4983182;28;20159;-65
2023/10/30 06:03:26;;;;;;;0.00;0.00;;;;;;;;;;4984908;28;20038;-66
2023/10/30 06:05:52;;;;;;;0.00;0.00;;;;;;;;;;4977937;28;20557;-66
2023/10/30 06:08:22;;;;;;;0.00;0.00;;;;;;;;;;4979139;28;20050;-65
2023/10/30 06:10:48;;;;;;;0.00;0.00;;;;;;;;;;4967904;28;20046;-66
2023/10/30 06:13:15;;;;;;;0.00;0.00;;;;;;;;;;4986797;28;20521;-66
2023/10/30 06:15:41;;;;;;;0.00;0.00;;;;;;;;;;4993660;28;20125;-66
2023/10/30 06:18:07;;;;;;;0.00;0.00;;;;;;;;;;4983609;28;20526;-65
2023/10/30 06:20:33;;;;;;;0.00;0.00;;;;;;;;;;4987183;28;20088;-66
2023/10/30 06:22:59;;;;;;;0.00;0.00;;;;;;;;;;4986013;28;20026;-66
2023/10/30 06:25:25;;;;;;;0.00;0.00;;;;;;;;;;4984417;28;20091;-66
2023/10/30 06:27:53;;;;;;;0.00;0.00;;;;;;;;;;4986637;28;20455;-66
2023/10/30 06:30:19;;;;;;;0.00;0.00;;;;;;;;;;4985714;28;20059;-66
2023/10/30 06:32:45;;;;;;;0.00;0.00;;;;;;;;;;4986089;28;20201;-66
2023/10/30 06:35:11;;;;;;;0.00;0.00;;;;;;;;;;4987751;28;20054;-66
2023/10/30 06:37:37;;;;;;;0.00;0.00;;;;;;;;;;4986062;28;20084;-66
2023/10/30 06:40:04;;;;;;;0.00;0.00;;;;;;;;;;4986605;28;20035;-66
2023/10/30 06:42:30;;;;;;;0.00;0.00;;;;;;;;;;4989906;28;20034;-66
2023/10/30 06:44:56;;;;;;;0.00;0.00;;;;;;;;;;4984950;28;20421;-66
2023/10/30 06:47:22;;;;;;;0.00;0.00;;;;;;;;;;4984918;28;20045;-66
2023/10/30 06:49:47;;;;;;;0.00;0.00;;;;;;;;;;4983955;28;20089;-66
2023/10/30 06:52:13;;;;;;;0.00;0.00;;;;;;;;;;4983516;28;20131;-66
2023/10/30 06:54:39;;;;;;;0.00;0.00;;;;;;;;;;4976246;28;20049;-66
2023/10/30 06:57:06;;;;;;;0.00;0.00;;;;;;;;;;4985224;28;20121;-66
2023/10/30 06:59:32;;;;;;;0.00;0.00;;;;;;;;;;4980401;28;20064;-68
2023/10/30 07:01:58;;;;;;;0.00;0.00;;;;;;;;;;4974572;28;20380;-68
2023/10/30 07:04:24;;;;;;;0.00;0.00;;;;;;;;;;4981246;28;20335;-68
2023/10/30 07:06:50;;;;;;;0.00;0.00;;;;;;;;;;4985237;28;20387;-68
2023/10/30 07:09:18;;;;;;;0.00;0.00;;;;;;;;;;4984181;28;20038;-68
2023/10/30 07:11:44;;;;;;;0.00;0.00;;;;;;;;;;4983067;28;20050;-68
2023/10/30 07:14:10;;;;;;;0.00;0.00;;;;;;;;;;4975029;28;20050;-68
2023/10/30 07:16:36;;;;;;;0.00;0.00;;;;;;;;;;4985171;28;20091;-68
2023/10/30 07:19:02;;;;;;;0.00;0.00;;;;;;;;;;4983138;28;20053;-68
2023/10/30 07:21:29;;;;;;;0.00;0.00;;;;;;;;;;4988803;28;20050;-68
2023/10/30 07:23:55;;;;;;;0.00;0.00;;;;;;;;;;4984337;28;20121;-68
2023/10/30 07:26:22;;;;;;;0.00;0.00;;;;;;;;;;4982573;28;21592;-67
2023/10/30 07:28:49;;;;;;;0.00;0.00;;;;;;;;;;5001570;28;20157;-68
2023/10/30 07:31:17;;;;;;;0.00;0.00;;;;;;;;;;4981796;28;20073;-67
2023/10/30 07:33:43;;;;;;;0.00;0.00;;;;;;;;;;4981828;28;20030;-68
2023/10/30 07:36:09;;;;;;;0.00;0.00;;;;;;;;;;4981563;28;20518;-68
2023/10/30 07:38:36;;;;;;;0.00;0.00;;;;;;;;;;4984136;28;20185;-68
2023/10/30 07:41:02;;;;;;;0.00;0.00;;;;;;;;;;4981126;28;20089;-68
2023/10/30 07:43:28;;;;;;;0.00;0.00;;;;;;;;;;4982422;28;20085;-68
2023/10/30 07:45:54;;;;;;;0.00;0.00;;;;;;;;;;4983227;28;20050;-68
2023/10/30 07:48:26;;;;;;;0.00;0.00;;;;;;;;;;4980397;28;20042;-68
2023/10/30 07:50:52;;;;;;;0.00;0.00;;;;;;;;;;4984013;28;20038;-68
2023/10/30 07:53:18;;;;;;;0.00;0.00;;;;;;;;;;4979963;28;20592;-67
2023/10/30 07:55:46;;;;;;;0.00;0.00;;;;;;;;;;4982993;28;20034;-68
2023/10/30 07:58:12;;;;;;;0.00;0.00;;;;;;;;;;4981750;28;20038;-70
2023/10/30 08:00:39;;;;;;;0.00;0.00;;;;;;;;;;4978333;28;20031;-70
2023/10/30 08:03:06;;;;;;;0.00;0.00;;;;;;;;;;4986364;28;20038;-70
2023/10/30 08:05:32;;;;;;;0.00;0.00;;;;;;;;;;4985911;28;20223;-70
2023/10/30 08:07:58;;;;;;;0.00;0.00;;;;;;;;;;4985565;28;20122;-70
2023/10/30 08:10:24;;;;;;;0.00;0.00;;;;;;;;;;4987318;28;20403;-70
2023/10/30 08:12:51;;;;;;;0.00;0.00;;;;;;;;;;4988579;28;20035;-69
2023/10/30 08:15:17;;;;;;;0.00;0.00;;;;;;;;;;4983681;28;20096;-70
2023/10/30 08:17:43;;;;;;;0.00;0.00;;;;;;;;;;4985007;28;20084;-70
2023/10/30 08:20:09;;;;;;;0.00;0.00;;;;;;;;;;4983780;28;20037;-70
2023/10/30 08:22:36;;;;;;;0.00;0.00;;;;;;;;;;4982674;28;20088;-70
2023/10/30 08:25:02;;;;;;;0.00;0.00;;;;;;;;;;4981264;28;20037;-70
2023/10/30 08:27:28;;;;;;;0.00;0.00;;;;;;;;;;4992438;28;20489;-70
2023/10/30 08:29:54;;;;;;;0.00;0.00;;;;;;;;;;4982156;28;20915;-70
2023/10/30 08:32:20;;;;;;;0.00;0.00;;;;;;;;;;4985560;28;20049;-70
2023/10/30 08:34:46;;;;;;;0.00;0.00;;;;;;;;;;4988649;28;20073;-71
2023/10/30 08:37:12;;;;;;;0.00;0.00;;;;;;;;;;4988067;28;20041;-70
2023/10/30 08:39:38;;;;;;;0.00;0.00;;;;;;;;;;4982482;28;20045;-71
2023/10/30 08:42:05;;;;;;;0.00;0.00;;;;;;;;;;4978580;28;20377;-70
2023/10/30 08:44:31;;;;;;;0.00;0.00;;;;;;;;;;4985664;28;20410;-70
2023/10/30 08:46:58;;;;;;;0.00;0.00;;;;;;;;;;4980648;28;20038;-70
2023/10/30 08:49:24;;;;;;;0.00;0.00;;;;;;;;;;4984995;28;20045;-69
2023/10/30 08:51:50;;;;;;;0.00;0.00;;;;;;;;;;4984143;28;20043;-70
2023/10/30 08:54:15;;;;;;;0.00;0.00;;;;;;;;;;4979280;28;20137;-70
2023/10/30 08:56:42;;;;;;;0.00;0.00;;;;;;;;;;4980327;28;20042;-70
2023/10/30 08:59:09;;;;;;;0.00;0.00;;;;;;;;;;4985152;28;20509;-71
2023/10/30 09:01:34;;;;;;;0.00;0.00;;;;;;;;;;4982349;28;20144;-70
2023/10/30 09:04:00;;;;;;;0.00;0.00;;;;;;;;;;4981272;28;20065;-71
2023/10/30 09:06:27;;;;;;;0.00;0.00;;;;;;;;;;4981942;28;20035;-70
2023/10/30 09:08:53;;;;;;;0.00;0.00;;;;;;;;;;4978928;28;20518;-71
2023/10/30 09:11:19;;;;;;;0.00;0.00;;;;;;;;;;4980316;28;20046;-70
2023/10/30 09:13:45;;;;;;;0.00;0.00;;;;;;;;;;4982575;28;20037;-70
2023/10/30 09:16:11;;;;;;;0.00;0.00;;;;;;;;;;4980607;28;20088;-70
2023/10/30 09:18:37;;;;;;;0.00;0.00;;;;;;;;;;4981487;28;20046;-72
2023/10/30 09:21:03;;;;;;;0.00;0.00;;;;;;;;;;4979764;28;20403;-71
2023/10/30 09:23:29;;;;;;;0.00;0.00;;;;;;;;;;4981969;28;20633;-71
2023/10/30 09:25:55;;;;;;;0.00;0.00;;;;;;;;;;4981456;28;20083;-71
2023/10/30 09:28:21;;;;;;;0.00;0.00;;;;;;;;;;4980964;28;20046;-70
2023/10/30 09:30:47;;;;;;;0.00;0.00;;;;;;;;;;4977351;28;20182;-71
2023/10/30 09:33:13;;;;;;;0.00;0.00;;;;;;;;;;4980343;28;20544;-72
2023/10/30 09:35:42;;;;;;;0.00;0.00;;;;;;;;;;4982250;28;20099;-72
2023/10/30 09:38:08;;;;;;;0.00;0.00;;;;;;;;;;4979988;28;20038;-70
2023/10/30 09:40:34;;;;;;;0.00;0.00;;;;;;;;;;4980965;28;20462;-71
2023/10/30 09:43:01;;;;;;;0.00;0.00;;;;;;;;;;4975629;28;20038;-70
2023/10/30 09:45:27;;;;;;;0.00;0.00;;;;;;;;;;4991713;28;20061;-71
2023/10/30 09:47:57;;;;;;;0.00;0.00;;;;;;;;;;4983310;28;20053;-71
2023/10/30 09:50:25;;;;;;;0.00;0.00;;;;;;;;;;4983514;28;20050;-71
2023/10/30 09:52:54;;;;;;;0.00;0.00;;;;;;;;;;4984733;28;20379;-71
2023/10/30 09:55:21;;;;;;;0.00;0.00;;;;;;;;;;4982063;28;20133;-71
2023/10/30 09:57:48;;;;;;;0.00;0.00;;;;;;;;;;4984345;28;20410;-71
2023/10/30 10:00:14;;;;;;;0.00;0.00;;;;;;;;;;4983248;28;20104;-71
2023/10/30 10:02:41;;;;;;;0.00;0.00;;;;;;;;;;4983899;28;20058;-71
2023/10/30 10:05:08;;;;;;;0.00;0.00;;;;;;;;;;4984915;28;20452;-72
2023/10/30 10:07:34;;;;;;;0.00;0.00;;;;;;;;;;4998584;28;20498;-71
2023/10/30 10:10:01;;;;;;;0.00;0.00;;;;;;;;;;4986025;28;20046;-72
2023/10/30 10:12:27;;;;;;;0.00;0.00;;;;;;;;;;4981739;28;20535;-71
2023/10/30 10:14:53;;;;;;;0.00;0.00;;;;;;;;;;4984733;28;20447;-72
2023/10/30 10:17:19;;;;;;;0.00;0.00;;;;;;;;;;4982718;28;20041;-71
2023/10/30 10:19:46;;;;;;;0.00;0.00;;;;;;;;;;4983288;28;20038;-72
2023/10/30 10:22:26;;;;;;;0.00;0.00;;;;;;;;;;4983545;28;20042;-71
2023/10/30 10:24:53;;;;;;;0.00;0.00;;;;;;;;;;4983652;28;20042;-71
2023/10/30 10:27:19;;;;;;;0.00;0.00;;;;;;;;;;4990468;28;20061;-71
2023/10/30 10:29:45;;;;;;;0.00;0.00;;;;;;;;;;4985818;28;20042;-71
2023/10/30 10:32:12;;;;;;;0.00;0.00;;;;;;;;;;4983736;28;20126;-72
2023/10/30 10:34:38;;;;;;;0.00;0.00;;;;;;;;;;4985654;28;20141;-72
2023/10/30 10:37:04;;;;;;;0.00;0.00;;;;;;;;;;4984852;28;20046;-72
2023/10/30 10:39:47;;;;;;;0.00;0.00;;;;;;;;;;4987709;28;20042;-71
2023/10/30 10:42:13;;;;;;;0.00;0.00;;;;;;;;;;4981904;28;20485;-70
2023/10/30 10:44:39;;;;;;;0.00;0.00;;;;;;;;;;4983997;28;20204;-72
2023/10/30 10:47:05;;;;;;;0.00;0.00;;;;;;;;;;4982835;28;20572;-69
2023/10/30 10:49:31;;;;;;;0.00;0.00;;;;;;;;;;4983480;28;20499;-71
2023/10/30 10:51:58;;;;;;;0.00;0.00;;;;;;;;;;4994541;28;20066;-71
2023/10/30 10:54:27;;;;;;;0.00;0.00;;;;;;;;;;4983509;28;20213;-71
2023/10/30 10:56:54;;;;;;;0.00;0.00;;;;;;;;;;4982130;28;20064;-72
2023/10/30 10:59:21;;;;;;;0.00;0.00;;;;;;;;;;4981996;28;20120;-71
2023/10/30 11:01:50;;;;;;;0.00;0.00;;;;;;;;;;4984364;28;20309;-71
2023/10/30 11:04:16;;;;;;;0.00;0.00;;;;;;;;;;4981683;28;20042;-70
2023/10/30 11:06:46;;;;;;;0.00;0.00;;;;;;;;;;4983388;28;20037;-71
2023/10/30 11:09:19;;;;;;;0.00;0.00;;;;;;;;;;4995827;28;20574;-70
2023/10/30 11:11:47;;;;;;;0.00;0.00;;;;;;;;;;4981438;28;20038;-71
2023/10/30 11:14:19;;;;;;;0.00;0.00;;;;;;;;;;4982917;28;20419;-72
2023/10/30 11:16:56;;;;;;;0.00;0.00;;;;;;;;;;4985448;28;20038;-71
2023/10/30 11:19:22;;;;;;;0.00;0.00;;;;;;;;;;4984648;28;20132;-70
2023/10/30 11:21:49;;;;;;;0.00;0.00;;;;;;;;;;4986724;28;20702;-70
2023/10/30 11:24:34;;;;;;;0.00;0.00;;;;;;;;;;4981894;28;20120;-69
2023/10/30 11:27:00;;;;;;;0.00;0.00;;;;;;;;;;4978128;28;20810;-71
2023/10/30 11:29:46;;;;;;;0.00;0.00;;;;;;;;;;4980160;28;20038;-70
2023/10/30 11:32:17;;;;;;;0.00;0.00;;;;;;;;;;4981712;28;20078;-70
2023/10/30 11:34:43;;;;;;;0.00;0.00;;;;;;;;;;4983261;28;20552;-70
2023/10/30 11:37:12;;;;;;;0.00;0.00;;;;;;;;;;4985890;28;20541;-69
2023/10/30 11:39:45;;;;;;;0.00;0.00;;;;;;;;;;4976504;28;20113;-71
2023/10/30 11:42:11;;;;;;;;;;;;;;;;;;4978655;28;20511;-70
2023/10/30 11:44:37;;;;;;;0.00;0.00;;;;;;;;;;4984775;28;20028;-70
2023/10/30 11:47:04;;;;;;;0.00;0.00;;;;;;;;;;4980914;28;20168;-71
2023/10/30 11:49:32;;;;;;;0.00;0.00;;;;;;;;;;4981658;28;20406;-71
2023/10/30 11:51:58;;;;;;;0.00;0.00;;;;;;;;;;4980222;28;20501;-70
2023/10/30 11:54:30;;;;;;;0.00;0.00;;;;;;;;;;4979708;28;20046;-71
2023/10/30 11:56:56;;;;;;;0.00;0.00;;;;;;;;;;4983054;28;20041;-71
2023/10/30 11:59:22;;;;;;;0.00;0.00;;;;;;;;;;4981005;28;20430;-67
2023/10/30 12:01:51;;;;;;;0.00;0.00;;;;;;;;;;4985511;28;20136;-67
2023/10/30 12:04:23;;;;;;;0.00;0.00;;;;;;;;;;4981627;28;20065;-67
2023/10/30 12:06:50;;;;;;;0.00;0.00;;;;;;;;;;4985969;28;20034;-67
2023/10/30 12:09:20;;;;;;;0.00;0.00;;;;;;;;;;4982883;28;20073;-67
2023/10/30 12:11:46;;;;;;;0.00;0.00;;;;;;;;;;4983040;28;20070;-67
2023/10/30 12:14:12;;;;;;;0.00;0.00;;;;;;;;;;4978775;28;20474;-67
2023/10/30 12:16:39;;;;;;;0.00;0.00;;;;;;;;;;4983607;28;20034;-67
2023/10/30 12:19:05;;;;;;;0.00;0.00;;;;;;;;;;4982001;28;20119;-67
2023/10/30 12:21:31;;;;;;;0.00;0.00;;;;;;;;;;4980674;28;20049;-67
2023/10/30 12:23:59;;;;;;;0.00;0.00;;;;;;;;;;4979908;28;20148;-67
2023/10/30 12:26:27;;;;;;;0.00;0.00;;;;;;;;;;4980353;28;20116;-67
2023/10/30 12:28:58;;;;;;;0.00;0.00;;;;;;;;;;4981255;28;20042;-67
2023/10/30 12:31:26;;;;;;;0.00;0.00;;;;;;;;;;4980293;28;20038;-67
2023/10/30 12:34:08;;;;;;;0.00;0.00;;;;;;;;;;4980514;28;20038;-67
2023/10/30 12:36:34;;;;;;;0.00;0.00;;;;;;;;;;4988157;28;20034;-67
2023/10/30 12:39:13;;;;;;;0.00;0.00;;;;;;;;;;4985940;28;20045;-67
2023/10/30 12:41:39;;;;;;;0.00;0.00;;;;;;;;;;4987554;28;20042;-67
2023/10/30 12:44:05;;;;;;;0.00;0.00;;;;;;;;;;4994563;28;20088;-67
2023/10/30 12:46:31;;;;;;;0.00;0.00;;;;;;;;;;4981114;28;20049;-67
2023/10/30 12:48:57;;;;;;;0.00;0.00;;;;;;;;;;4980224;28;20033;-67
2023/10/30 12:51:23;;;;;;;0.00;0.00;;;;;;;;;;4980713;28;20046;-67
2023/10/30 12:53:49;;;;;;;0.00;0.00;;;;;;;;;;4978539;28;20049;-67
2023/10/30 12:56:15;;;;;;;0.00;0.00;;;;;;;;;;4975057;28;20516;-67
2023/10/30 12:58:41;;;;;;;0.00;0.00;;;;;;;;;;4981293;28;20031;-67
2023/10/30 13:01:07;;;;;;;0.00;0.00;;;;;;;;;;4983848;28;20044;-67
2023/10/30 13:03:33;;;;;;;0.00;0.00;;;;;;;;;;4981556;28;20034;-67
2023/10/30 13:05:59;;;;;;;0.00;0.00;;;;;;;;;;4976777;28;20030;-66
2023/10/30 13:08:25;;;;;;;0.00;0.00;;;;;;;;;;4990197;28;20088;-67
2023/10/30 13:10:51;;;;;;;0.00;0.00;;;;;;;;;;4983666;28;20035;-67
2023/10/30 13:13:18;;;;;;;0.00;0.00;;;;;;;;;;4980777;28;20038;-67
2023/10/30 13:15:45;;;;;;;0.00;0.00;;;;;;;;;;4981332;28;20541;-67
2023/10/30 13:18:12;;;;;;;0.00;0.00;;;;;;;;;;4980882;28;20121;-67
2023/10/30 13:20:38;;;;;;;0.00;0.00;;;;;;;;;;4985898;28;20062;-67
2023/10/30 13:23:04;;;;;;;0.00;0.00;;;;;;;;;;4980130;28;20465;-67
2023/10/30 13:25:31;;;;;;;0.00;0.00;;;;;;;;;;4980838;28;20042;-67
2023/10/30 13:27:57;;;;;;;0.00;0.00;;;;;;;;;;4981194;28;20133;-67
2023/10/30 13:30:23;;;;;;;0.00;0.00;;;;;;;;;;4974519;28;20129;-67
2023/10/30 13:32:52;;;;;;;0.00;0.00;;;;;;;;;;4982408;28;20038;-67
2023/10/30 13:35:18;;;;;;;0.00;0.00;;;;;;;;;;4977097;28;20042;-67
2023/10/30 13:37:44;;;;;;;0.00;0.00;;;;;;;;;;4982165;28;20034;-67
2023/10/30 13:40:12;;;;;;;0.00;0.00;;;;;;;;;;4978573;28;20066;-67
2023/10/30 13:42:39;;;;;;;0.00;0.00;;;;;;;;;;4981408;28;20040;-67
2023/10/30 13:45:05;;;;;;;0.00;0.00;;;;;;;;;;4990894;28;20046;-67
2023/10/30 13:47:31;;;;;;;0.00;0.00;;;;;;;;;;4981682;28;20046;-67
2023/10/30 13:49:57;;;;;;;0.00;0.00;;;;;;;;;;4980679;28;20070;-67
2023/10/30 13:52:24;;;;;;;0.00;0.00;;;;;;;;;;4978366;28;20035;-66
2023/10/30 13:54:52;;;;;;;0.00;0.00;;;;;;;;;;4977603;28;20050;-67
2023/10/30 13:57:19;;;;;;;0.00;0.00;;;;;;;;;;4979657;28;20067;-67
2023/10/30 13:59:45;;;;;;;0.00;0.00;;;;;;;;;;4992088;28;20042;-66
2023/10/30 14:02:12;;;;;;;0.00;0.00;;;;;;;;;;4982538;28;20047;-67
2023/10/30 14:04:38;;;;;;;0.00;0.00;;;;;;;;;;4981485;28;20500;-67
2023/10/30 14:07:04;;;;;;;0.00;0.00;;;;;;;;;;4978936;28;20082;-67
2023/10/30 14:09:30;;;;;;;0.00;0.00;;;;;;;;;;4981585;28;20046;-66
2023/10/30 14:11:56;;;;;;;0.00;0.00;;;;;;;;;;4988579;28;20077;-66
2023/10/30 14:14:22;;;;;;;0.00;0.00;;;;;;;;;;4979830;28;20057;-66
2023/10/30 14:16:50;;;;;;;0.10;0.00;;;;;;;;;;4982021;28;20157;-67
2023/10/30 14:19:16;;;;;;;0.00;0.00;;;;;;;;;;4979100;28;20196;-67
2023/10/30 14:21:44;;;;;;;0.00;0.00;;;;;;;;;;4979739;28;20082;-67
2023/10/30 14:24:10;;;;;;;0.00;0.00;;;;;;;;;;4976211;28;20522;-67
2023/10/30 14:26:38;;;;;;;0.00;0.00;;;;;;;;;;4988337;28;20798;-67
2023/10/30 14:29:04;;;;;;;0.00;0.00;;;;;;;;;;4989450;28;20113;-67
2023/10/30 14:31:30;;;;;;;0.00;0.00;;;;;;;;;;4982308;28;20053;-66
2023/10/30 14:33:56;;;;;;;0.00;0.00;;;;;;;;;;4987100;28;20069;-67
2023/10/30 14:36:22;;;;;;;0.00;0.00;;;;;;;;;;4984448;28;20214;-67
2023/10/30 14:38:48;;;;;;;0.00;0.00;;;;;;;;;;4996453;28;20457;-69
2023/10/30 14:41:14;;;;;;;0.00;0.00;;;;;;;;;;4989097;28;20047;-71